Time;durP1;ratioP1;P1;durP2;ratioP2;P2;SDS_P1;SDS_P2;PMS_P1;PMS_P2;Temp;Humidity;BMP_temperature;BMP_pressure;BME280_temperature;BME280_humidity;BME280_pressure;Samples;Min_cycle;Max_cycle;Signal;HPM_P1;HPM_P2
2020/12/24 00:00:09;;;;;;;14.43;1.90;;;9.90;99.90;;;;;;5057775;28;20296;-77
2020/12/24 00:02:35;;;;;;;10.63;1.90;;;9.90;99.90;;;;;;5058286;28;20202;-77
2020/12/24 00:05:02;;;;;;;14.23;1.77;;;9.80;99.90;;;;;;5058312;28;20224;-77
2020/12/24 00:07:29;;;;;;;13.43;2.07;;;9.70;99.90;;;;;;5057311;28;20233;-77
2020/12/24 00:09:55;;;;;;;9.10;1.70;;;9.60;99.90;;;;;;5054560;28;20618;-77
2020/12/24 00:12:22;;;;;;;9.73;1.87;;;9.70;99.90;;;;;;5054985;28;20287;-76
2020/12/24 00:14:49;;;;;;;13.73;2.17;;;9.60;99.90;;;;;;5054908;28;20224;-77
2020/12/24 00:17:15;;;;;;;14.70;2.00;;;9.60;99.90;;;;;;5055046;28;20229;-76
2020/12/24 00:19:41;;;;;;;13.97;2.43;;;9.60;99.90;;;;;;5054969;28;20302;-76
2020/12/24 00:22:08;;;;;;;10.30;2.20;;;9.60;99.90;;;;;;5054688;28;20200;-76
2020/12/24 00:24:34;;;;;;;10.43;1.67;;;9.50;99.90;;;;;;5054796;28;20289;-77
2020/12/24 00:27:01;;;;;;;9.77;1.80;;;9.50;99.90;;;;;;5055034;28;20200;-76
2020/12/24 00:29:28;;;;;;;11.17;1.90;;;9.40;99.90;;;;;;5054608;28;20254;-76
2020/12/24 00:31:54;;;;;;;8.20;1.67;;;9.50;99.90;;;;;;5054941;28;20285;-76
2020/12/24 00:34:21;;;;;;;11.30;2.07;;;9.50;99.90;;;;;;5054741;28;20326;-76
2020/12/24 00:36:47;;;;;;;11.47;1.70;;;9.40;99.90;;;;;;5054638;28;20208;-76
2020/12/24 00:39:13;;;;;;;16.50;2.10;;;9.40;99.90;;;;;;5054617;28;20681;-76
2020/12/24 00:41:40;;;;;;;7.33;1.87;;;9.30;99.90;;;;;;5054491;28;20696;-76
2020/12/24 00:44:06;;;;;;;10.43;1.63;;;9.30;99.90;;;;;;5054360;28;20194;-76
2020/12/24 00:46:33;;;;;;;12.60;1.70;;;9.20;99.90;;;;;;5054875;28;20202;-75
2020/12/24 00:48:59;;;;;;;15.60;1.70;;;9.10;99.90;;;;;;5054340;28;20291;-76
2020/12/24 00:51:26;;;;;;;12.03;2.07;;;9.10;99.90;;;;;;5054386;28;20228;-76
2020/12/24 00:53:52;;;;;;;8.37;1.33;;;9.10;99.90;;;;;;5054294;28;20313;-76
2020/12/24 00:56:18;;;;;;;14.10;2.03;;;9.00;99.90;;;;;;5054347;28;20702;-76
2020/12/24 00:58:45;;;;;;;8.87;1.63;;;9.10;99.90;;;;;;5054403;28;20308;-76
2020/12/24 01:01:11;;;;;;;11.93;1.97;;;9.10;99.90;;;;;;5054130;28;20198;-76
2020/12/24 01:03:38;;;;;;;13.87;2.47;;;9.10;99.90;;;;;;5054218;28;20255;-76
2020/12/24 01:06:05;;;;;;;16.50;2.47;;;9.10;99.90;;;;;;5054008;28;20284;-76
2020/12/24 01:08:31;;;;;;;13.10;2.70;;;9.10;99.90;;;;;;5054099;28;20197;-76
2020/12/24 01:10:57;;;;;;;15.40;2.50;;;9.00;99.90;;;;;;5054354;28;20300;-76
2020/12/24 01:13:24;;;;;;;10.10;2.37;;;9.00;99.90;;;;;;5054258;28;20220;-76
2020/12/24 01:15:50;;;;;;;13.30;2.27;;;9.00;99.90;;;;;;5054017;28;20288;-76
2020/12/24 01:18:16;;;;;;;12.73;2.60;;;9.00;99.90;;;;;;5053682;28;20560;-76
2020/12/24 01:20:45;;;;;;;9.23;2.67;;;9.00;99.90;;;;;;5054127;28;20200;-76
2020/12/24 01:23:11;;;;;;;11.47;2.63;;;8.90;99.90;;;;;;5053772;28;20251;-76
2020/12/24 01:25:38;;;;;;;15.03;2.73;;;8.90;99.90;;;;;;5053479;28;20200;-76
2020/12/24 01:28:04;;;;;;;14.90;2.93;;;9.00;99.90;;;;;;5053815;28;20209;-76
2020/12/24 01:30:30;;;;;;;10.57;2.60;;;9.00;99.90;;;;;;5053684;28;20665;-76
2020/12/24 01:32:57;;;;;;;14.10;2.40;;;8.90;99.90;;;;;;5053734;28;20202;-76
2020/12/24 01:35:23;;;;;;;14.37;2.67;;;8.90;99.90;;;;;;5053462;28;20317;-76
2020/12/24 01:37:50;;;;;;;10.83;2.43;;;8.90;99.90;;;;;;5053341;28;20199;-76
2020/12/24 01:40:17;;;;;;;11.67;2.27;;;8.90;99.90;;;;;;5053356;28;20200;-76
2020/12/24 01:42:43;;;;;;;15.67;3.10;;;8.90;99.90;;;;;;5053260;28;20676;-76
2020/12/24 01:45:09;;;;;;;11.77;2.47;;;9.00;99.90;;;;;;5053317;28;20211;-76
2020/12/24 01:47:36;;;;;;;10.40;2.70;;;9.00;99.90;;;;;;5053408;28;20202;-76
2020/12/24 01:50:04;;;;;;;11.50;2.23;;;9.00;99.90;;;;;;5053331;28;20317;-76
2020/12/24 01:52:35;;;;;;;12.17;2.27;;;9.10;99.90;;;;;;5053190;28;20203;-76
2020/12/24 01:55:06;;;;;;;13.17;2.57;;;9.10;99.90;;;;;;5052783;28;20234;-76
2020/12/24 01:57:32;;;;;;;15.47;2.70;;;9.00;99.90;;;;;;5053107;28;20209;-77
2020/12/24 01:59:58;;;;;;;12.97;2.23;;;9.00;99.90;;;;;;5052991;28;20643;-77
2020/12/24 02:02:25;;;;;;;12.33;2.63;;;9.00;99.90;;;;;;5052976;28;20225;-76
2020/12/24 02:04:51;;;;;;;13.50;2.27;;;9.00;99.90;;;;;;5053032;28;20289;-76
2020/12/24 02:07:18;;;;;;;12.17;2.00;;;9.00;99.90;;;;;;5053179;28;20610;-76
2020/12/24 02:09:46;;;;;;;12.57;2.20;;;8.90;99.90;;;;;;5052964;28;20203;-76
2020/12/24 02:12:13;;;;;;;10.17;2.13;;;9.00;99.90;;;;;;5053014;28;20566;-76
2020/12/24 02:14:40;;;;;;;8.97;2.00;;;9.00;99.90;;;;;;5052649;28;20234;-77
2020/12/24 02:17:06;;;;;;;10.50;2.77;;;9.10;99.90;;;;;;5052806;28;20265;-76
2020/12/24 02:19:33;;;;;;;15.93;2.93;;;9.10;99.90;;;;;;5052667;28;20231;-76
2020/12/24 02:22:01;;;;;;;10.60;2.43;;;9.00;99.90;;;;;;5052281;28;20205;-76
2020/12/24 02:24:28;;;;;;;16.30;2.70;;;9.10;99.90;;;;;;5052804;28;20215;-76
2020/12/24 02:26:54;;;;;;;10.77;2.43;;;9.10;99.90;;;;;;5052717;28;20202;-76
2020/12/24 02:29:21;;;;;;;10.87;2.53;;;9.10;99.90;;;;;;5052542;28;20198;-76
2020/12/24 02:31:48;;;;;;;17.20;2.73;;;9.10;99.90;;;;;;5052036;28;20206;-76
2020/12/24 02:34:14;;;;;;;9.57;2.30;;;9.00;99.90;;;;;;5052345;28;20275;-76
2020/12/24 02:36:41;;;;;;;14.83;2.70;;;8.90;99.90;;;;;;5052224;28;20197;-76
2020/12/24 02:39:08;;;;;;;10.57;2.70;;;8.90;99.90;;;;;;5052235;28;20237;-76
2020/12/24 02:41:37;;;;;;;10.10;2.10;;;8.90;99.90;;;;;;5052283;28;20192;-76
2020/12/24 02:44:04;;;;;;;10.53;1.93;;;9.00;99.90;;;;;;5052398;28;20289;-76
2020/12/24 02:46:30;;;;;;;11.57;2.30;;;9.00;99.90;;;;;;5052326;28;20677;-76
2020/12/24 02:48:56;;;;;;;8.23;1.73;;;8.90;99.90;;;;;;5051948;28;20785;-76
2020/12/24 02:51:23;;;;;;;9.73;2.10;;;8.90;99.90;;;;;;5052245;28;20684;-76
2020/12/24 02:53:49;;;;;;;12.07;2.10;;;8.90;99.90;;;;;;5052029;28;20224;-76
2020/12/24 02:56:16;;;;;;;10.77;2.13;;;8.80;99.90;;;;;;5052089;28;20216;-76
2020/12/24 02:58:42;;;;;;;8.57;2.10;;;8.80;99.90;;;;;;5052110;28;20205;-76
2020/12/24 03:01:09;;;;;;;7.57;1.83;;;8.80;99.90;;;;;;5052234;28;20204;-76
2020/12/24 03:03:35;;;;;;;8.73;1.77;;;8.80;99.90;;;;;;5051988;28;20188;-75
2020/12/24 03:06:01;;;;;;;8.13;1.60;;;8.80;99.90;;;;;;5052266;28;20285;-76
2020/12/24 03:08:28;;;;;;;10.87;2.40;;;8.80;99.90;;;;;;5052056;28;20346;-76
2020/12/24 03:10:55;;;;;;;6.17;1.07;;;8.80;99.90;;;;;;5052048;28;20663;-76
2020/12/24 03:13:22;;;;;;;7.23;1.27;;;8.80;99.90;;;;;;5052043;28;20339;-76
2020/12/24 03:15:49;;;;;;;10.77;1.50;;;8.80;99.90;;;;;;5052038;28;20208;-76
2020/12/24 03:18:16;;;;;;;9.17;1.20;;;8.80;99.90;;;;;;5051882;28;20194;-76
2020/12/24 03:20:42;;;;;;;7.80;1.10;;;8.80;99.90;;;;;;5052279;28;20205;-76
2020/12/24 03:23:08;;;;;;;8.20;0.90;;;8.90;99.90;;;;;;5052102;28;20308;-76
2020/12/24 03:25:35;;;;;;;4.63;1.00;;;8.80;99.90;;;;;;5051841;28;20686;-76
2020/12/24 03:28:01;;;;;;;4.20;1.00;;;8.80;99.90;;;;;;5051905;28;20334;-76
2020/12/24 03:30:28;;;;;;;11.80;1.00;;;8.80;99.90;;;;;;5051879;28;20204;-76
2020/12/24 03:32:54;;;;;;;5.50;0.87;;;8.70;99.90;;;;;;5051693;28;20739;-76
2020/12/24 03:35:21;;;;;;;3.40;0.80;;;8.60;99.90;;;;;;5051754;28;20308;-76
2020/12/24 03:37:47;;;;;;;5.13;1.00;;;8.60;99.90;;;;;;5051795;28;20244;-76
2020/12/24 03:40:13;;;;;;;8.97;1.20;;;8.50;99.90;;;;;;5051724;28;20676;-76
2020/12/24 03:42:40;;;;;;;7.03;0.70;;;8.40;99.90;;;;;;5051841;28;20800;-76
2020/12/24 03:45:06;;;;;;;4.70;1.07;;;8.30;99.90;;;;;;5055369;28;20745;-76
2020/12/24 03:47:33;;;;;;;7.93;1.40;;;8.30;99.90;;;;;;5055413;28;20750;-76
2020/12/24 03:50:00;;;;;;;6.20;1.00;;;8.30;99.90;;;;;;5055619;28;20203;-76
2020/12/24 03:52:26;;;;;;;7.53;0.90;;;8.30;99.90;;;;;;5055438;28;20203;-76
2020/12/24 03:54:52;;;;;;;7.33;0.97;;;8.30;99.90;;;;;;5055211;28;20752;-76
2020/12/24 03:57:19;;;;;;;6.10;0.73;;;8.40;99.90;;;;;;5055407;28;20718;-76
2020/12/24 03:59:45;;;;;;;4.60;0.80;;;8.40;99.90;;;;;;5055258;28;20667;-76
2020/12/24 04:02:11;;;;;;;9.67;1.77;;;8.60;99.90;;;;;;5055530;28;20209;-76
2020/12/24 04:04:38;;;;;;;9.17;1.27;;;8.60;99.90;;;;;;5055273;28;20200;-76
2020/12/24 04:07:05;;;;;;;8.07;1.13;;;8.60;99.90;;;;;;5055369;28;20284;-76
2020/12/24 04:09:31;;;;;;;8.80;1.30;;;8.60;99.90;;;;;;5055180;28;20202;-76
2020/12/24 04:11:57;;;;;;;6.43;1.27;;;8.60;99.90;;;;;;5055054;28;20202;-76
2020/12/24 04:14:24;;;;;;;10.73;1.20;;;8.70;99.90;;;;;;5054879;28;20224;-76
2020/12/24 04:16:50;;;;;;;4.27;0.60;;;8.70;99.90;;;;;;5055362;28;20204;-76
2020/12/24 04:19:16;;;;;;;6.77;1.03;;;8.70;99.90;;;;;;5054828;28;20220;-76
2020/12/24 04:21:44;;;;;;;7.17;1.00;;;8.70;99.90;;;;;;5055018;28;20202;-76
2020/12/24 04:24:10;;;;;;;6.47;1.40;;;8.70;99.90;;;;;;5055123;28;20205;-76
2020/12/24 04:26:36;;;;;;;6.77;1.10;;;8.70;99.90;;;;;;5054877;28;20347;-76
2020/12/24 04:29:03;;;;;;;6.30;1.13;;;8.50;99.90;;;;;;5054680;28;20263;-76
2020/12/24 04:31:29;;;;;;;8.43;1.07;;;8.50;99.90;;;;;;5054934;28;20208;-76
2020/12/24 04:33:55;;;;;;;10.23;0.97;;;8.50;99.90;;;;;;5054550;28;20273;-76
2020/12/24 04:36:22;;;;;;;3.47;0.80;;;8.50;99.90;;;;;;5054818;28;20278;-76
2020/12/24 04:38:49;;;;;;;3.50;1.00;;;8.40;99.90;;;;;;5054603;28;20251;-76
2020/12/24 04:41:16;;;;;;;4.50;0.93;;;8.40;99.90;;;;;;5054580;28;20206;-76
2020/12/24 04:43:43;;;;;;;4.43;1.20;;;8.30;99.90;;;;;;5054580;28;20285;-76
2020/12/24 04:46:12;;;;;;;6.63;1.07;;;8.20;99.90;;;;;;5054924;28;20206;-76
2020/12/24 04:48:40;;;;;;;6.20;1.30;;;8.20;99.90;;;;;;5055691;28;20202;-76
2020/12/24 04:51:09;;;;;;;5.60;1.00;;;8.00;99.90;;;;;;5055292;28;20212;-76
2020/12/24 04:53:37;;;;;;;3.77;0.93;;;8.00;99.90;;;;;;5054448;28;20212;-76
2020/12/24 04:56:06;;;;;;;3.37;0.90;;;8.00;99.90;;;;;;5054107;28;20204;-76
2020/12/24 04:58:33;;;;;;;8.73;1.07;;;8.10;99.90;;;;;;5054357;28;20196;-76
2020/12/24 05:00:59;;;;;;;6.43;1.10;;;8.20;99.90;;;;;;5054185;28;20199;-76
2020/12/24 05:03:26;;;;;;;6.60;1.43;;;8.10;99.90;;;;;;5054545;28;20198;-76
2020/12/24 05:05:52;;;;;;;6.70;1.07;;;8.10;99.90;;;;;;5054192;28;20202;-76
2020/12/24 05:08:19;;;;;;;7.23;1.30;;;8.00;99.90;;;;;;5054291;28;20209;-76
2020/12/24 05:11:03;;;;;;;4.37;1.13;;;7.90;99.90;;;;;;5053992;28;20289;-76
2020/12/24 05:13:30;;;;;;;4.70;1.10;;;7.90;99.90;;;;;;5054230;28;20224;-76
2020/12/24 05:15:56;;;;;;;6.13;1.23;;;7.90;99.90;;;;;;5053950;28;20287;-76
2020/12/24 05:18:23;;;;;;;4.13;0.90;;;8.00;99.90;;;;;;5053854;28;20297;-76
2020/12/24 05:20:50;;;;;;;7.15;1.30;;;8.00;99.90;;;;;;5053635;28;20434;-76
2020/12/24 05:23:17;;;;;;;4.53;1.03;;;8.00;99.90;;;;;;5053670;28;20203;-77
2020/12/24 05:25:45;;;;;;;5.93;1.30;;;8.10;99.90;;;;;;5053861;28;20540;-76
2020/12/24 05:28:20;;;;;;;7.20;1.40;;;8.10;99.90;;;;;;5053849;28;20715;-76
2020/12/24 05:30:48;;;;;;;9.83;1.20;;;8.20;99.90;;;;;;5053602;28;20662;-76
2020/12/24 05:33:29;;;;;;;9.50;1.10;;;8.20;99.90;;;;;;5053650;28;20198;-76
2020/12/24 05:36:16;;;;;;;5.17;1.17;;;8.30;99.90;;;;;;5053383;28;20293;-76
2020/12/24 05:38:43;;;;;;;7.80;1.03;;;8.30;99.90;;;;;;5053768;28;20253;-76
2020/12/24 05:41:28;;;;;;;9.57;1.10;;;8.30;99.90;;;;;;5053496;28;20340;-76
2020/12/24 05:43:55;;;;;;;4.33;1.20;;;8.30;99.90;;;;;;5052213;28;20198;-76
2020/12/24 05:46:23;;;;;;;5.00;1.00;;;8.20;99.90;;;;;;5053123;28;20205;-76
2020/12/24 05:48:49;;;;;;;7.57;1.50;;;8.30;99.90;;;;;;5053373;28;20196;-76
2020/12/24 05:51:18;;;;;;;9.43;1.37;;;8.30;99.90;;;;;;5053291;28;20355;-76
2020/12/24 05:53:45;;;;;;;6.50;1.43;;;8.30;99.90;;;;;;5053034;28;20205;-76
2020/12/24 05:56:20;;;;;;;6.07;1.23;;;8.30;99.90;;;;;;5053450;28;20662;-76
2020/12/24 05:58:47;;;;;;;7.50;1.60;;;8.30;99.90;;;;;;5053073;28;20210;-76
2020/12/24 06:01:16;;;;;;;4.47;1.30;;;8.30;99.90;;;;;;5053333;28;20202;-76
2020/12/24 06:04:02;;;;;;;3.83;1.20;;;8.30;99.90;;;;;;5053624;28;20206;-76
2020/12/24 06:06:43;;;;;;;8.37;2.10;;;8.30;99.90;;;;;;5052152;28;20219;-76
2020/12/24 06:09:13;;;;;;;5.20;1.70;;;8.30;99.90;;;;;;5052850;28;20232;-76
2020/12/24 06:11:45;;;;;;;6.17;1.60;;;8.40;99.90;;;;;;5052907;28;20202;-76
2020/12/24 06:14:21;;;;;;;10.00;1.57;;;8.40;99.90;;;;;;5052870;28;20228;-76
2020/12/24 06:16:49;;;;;;;9.37;1.70;;;8.40;99.90;;;;;;5052748;28;20201;-76
2020/12/24 06:19:20;;;;;;;10.37;1.87;;;8.50;99.90;;;;;;5052636;28;20262;-76
2020/12/24 06:21:47;;;;;;;6.77;1.57;;;8.50;99.90;;;;;;5052844;28;20312;-76
2020/12/24 06:24:14;;;;;;;6.77;1.87;;;8.60;99.90;;;;;;5052685;28;20550;-76
2020/12/24 06:26:45;;;;;;;6.57;1.70;;;8.60;99.90;;;;;;5052761;28;20200;-76
2020/12/24 06:29:14;;;;;;;5.93;1.87;;;8.60;99.90;;;;;;5052853;28;20237;-76
2020/12/24 06:31:45;;;;;;;5.30;1.93;;;8.60;99.90;;;;;;5052561;28;20545;-77
2020/12/24 06:34:22;;;;;;;7.77;2.00;;;8.70;99.90;;;;;;5052440;28;20262;-76
2020/12/24 06:36:49;;;;;;;4.97;2.00;;;8.60;99.90;;;;;;5052377;28;20570;-76
2020/12/24 06:39:40;;;;;;;5.63;2.17;;;8.70;99.90;;;;;;5052334;28;20205;-76
2020/12/24 06:42:07;;;;;;;7.40;2.17;;;8.70;99.90;;;;;;5052448;28;20219;-76
2020/12/24 06:44:47;;;;;;;6.47;2.20;;;8.70;99.90;;;;;;5052204;28;20196;-76
2020/12/24 06:47:15;;;;;;;8.63;2.60;;;8.70;99.90;;;;;;5052522;28;20208;-76
2020/12/24 06:49:43;;;;;;;7.73;2.73;;;8.70;99.90;;;;;;5052335;28;20201;-76
2020/12/24 06:52:10;;;;;;;7.50;2.80;;;8.70;99.90;;;;;;5052052;28;20205;-76
2020/12/24 06:54:38;;;;;;;6.70;2.70;;;8.70;99.90;;;;;;5052152;28;20225;-76
2020/12/24 06:57:24;;;;;;;10.67;3.07;;;8.70;99.90;;;;;;5052035;28;20208;-76
2020/12/24 07:00:18;;;;;;;6.77;3.20;;;8.70;99.90;;;;;;5052355;28;20213;-76
2020/12/24 07:02:46;;;;;;;6.43;3.20;;;8.70;99.90;;;;;;5052401;28;20346;-76
2020/12/24 07:05:47;;;;;;;13.10;7.23;;;8.60;99.90;;;;;;5052201;28;20669;-76
2020/12/24 07:08:45;;;;;;;15.33;8.57;;;8.70;99.90;;;;;;5051931;28;20203;-76
2020/12/24 07:11:11;;;;;;;16.43;8.27;;;8.60;99.90;;;;;;5052101;28;20202;-77
2020/12/24 07:13:38;;;;;;;21.43;9.63;;;8.30;99.90;;;;;;5052228;28;20239;-76
2020/12/24 07:16:06;;;;;;;18.17;10.90;;;8.00;99.90;;;;;;5051953;28;20202;-76
2020/12/24 07:18:34;;;;;;;21.53;10.57;;;7.80;99.90;;;;;;5054902;28;20202;-76
2020/12/24 07:21:03;;;;;;;21.97;9.87;;;7.80;99.90;;;;;;5056117;28;20209;-76
2020/12/24 07:23:31;;;;;;;15.50;10.23;;;7.70;99.90;;;;;;5055918;28;20207;-76
2020/12/24 07:25:58;;;;;;;19.67;10.40;;;7.70;99.90;;;;;;5055821;28;20227;-76
2020/12/24 07:28:29;;;;;;;17.90;9.97;;;7.60;99.90;;;;;;5055846;28;20204;-76
2020/12/24 07:30:56;;;;;;;12.23;7.33;;;7.50;99.90;;;;;;5056340;28;20279;-77
2020/12/24 07:33:23;;;;;;;9.13;5.90;;;7.40;99.90;;;;;;5055953;28;20194;-76
2020/12/24 07:35:49;;;;;;;4.10;2.33;;;7.30;99.90;;;;;;5055753;28;20325;-76
2020/12/24 07:38:19;;;;;;;2.53;2.10;;;7.10;99.90;;;;;;5055622;28;20237;-76
2020/12/24 07:40:46;;;;;;;2.63;1.40;;;6.80;99.90;;;;;;5055683;28;20216;-76
2020/12/24 07:43:13;;;;;;;1.50;0.83;;;6.70;99.90;;;;;;5055837;28;20223;-76
2020/12/24 07:45:40;;;;;;;1.57;1.33;;;6.40;99.90;;;;;;5055842;28;20362;-76
2020/12/24 07:48:17;;;;;;;1.70;1.30;;;6.20;99.90;;;;;;5055746;28;20201;-76
2020/12/24 07:50:44;;;;;;;1.70;1.50;;;6.20;99.90;;;;;;5055548;28;20642;-76
2020/12/24 07:53:11;;;;;;;1.80;1.43;;;6.00;99.90;;;;;;5055622;28;20540;-76
2020/12/24 07:55:38;;;;;;;0.80;0.70;;;5.90;99.90;;;;;;5055168;28;20707;-76
2020/12/24 07:58:09;;;;;;;1.63;1.03;;;5.80;99.90;;;;;;5055631;28;20239;-76
2020/12/24 08:00:43;;;;;;;2.90;1.50;;;5.70;99.90;;;;;;5055432;28;20194;-76
2020/12/24 08:03:10;;;;;;;2.70;1.67;;;5.60;99.90;;;;;;5055130;28;20200;-76
2020/12/24 08:05:36;;;;;;;2.30;1.63;;;5.60;99.90;;;;;;5055183;28;20681;-77
2020/12/24 08:08:03;;;;;;;2.03;1.53;;;5.50;99.90;;;;;;5054988;28;20297;-77
2020/12/24 08:10:29;;;;;;;1.70;1.47;;;5.40;99.90;;;;;;5055292;28;20208;-76
2020/12/24 08:13:03;;;;;;;1.07;0.90;;;5.40;99.90;;;;;;5054960;28;20201;-76
2020/12/24 08:15:32;;;;;;;0.93;0.57;;;5.30;99.90;;;;;;5055226;28;20229;-77
2020/12/24 08:18:02;;;;;;;1.07;0.77;;;5.20;99.90;;;;;;5054981;28;20682;-77
2020/12/24 08:20:37;;;;;;;4.43;0.50;;;5.20;99.90;;;;;;5054611;28;20236;-77
2020/12/24 08:23:12;;;;;;;0.40;0.30;;;5.20;99.90;;;;;;5054936;28;20197;-78
2020/12/24 08:25:38;;;;;;;0.93;0.82;;;5.20;99.90;;;;;;5054350;28;20447;-77
2020/12/24 08:28:07;;;;;;;1.30;0.80;;;5.20;99.90;;;;;;5054906;28;20212;-78
2020/12/24 08:30:34;;;;;;;0.73;0.40;;;5.20;99.90;;;;;;5053931;28;20240;-78
2020/12/24 08:33:04;;;;;;;0.90;0.50;;;5.20;99.90;;;;;;5054719;28;20284;-77
2020/12/24 08:35:31;;;;;;;0.50;0.50;;;5.20;99.90;;;;;;5054811;28;20228;-77
2020/12/24 08:38:13;;;;;;;0.73;0.73;;;5.20;99.90;;;;;;5054720;28;20197;-77
2020/12/24 08:40:40;;;;;;;0.30;0.30;;;5.20;99.90;;;;;;5054701;28;20205;-77
2020/12/24 08:43:08;;;;;;;0.50;0.50;;;5.20;99.90;;;;;;5054477;28;20207;-77
2020/12/24 08:45:42;;;;;;;1.80;0.50;;;5.20;99.90;;;;;;5054473;28;20291;-77
2020/12/24 08:48:09;;;;;;;0.50;0.40;;;5.10;99.90;;;;;;5054562;28;20204;-78
2020/12/24 08:50:37;;;;;;;0.53;0.40;;;5.20;99.90;;;;;;5054581;28;20199;-77
2020/12/24 08:53:05;;;;;;;1.37;0.53;;;5.20;99.90;;;;;;5054408;28;20197;-78
2020/12/24 08:55:32;;;;;;;1.07;0.70;;;5.20;99.90;;;;;;5054173;28;20229;-78
2020/12/24 08:57:59;;;;;;;0.60;0.57;;;5.20;99.90;;;;;;5054599;28;20725;-78
2020/12/24 09:00:27;;;;;;;0.83;0.60;;;5.20;99.90;;;;;;5054270;28;20200;-78
2020/12/24 09:02:53;;;;;;;0.40;0.40;;;5.20;99.90;;;;;;5054500;28;20207;-78
2020/12/24 09:05:24;;;;;;;0.40;0.40;;;5.20;99.90;;;;;;5054214;28;20201;-78
2020/12/24 09:07:50;;;;;;;1.00;0.60;;;5.20;99.90;;;;;;5054066;28;20205;-78
2020/12/24 09:10:24;;;;;;;3.07;0.40;;;5.20;99.90;;;;;;5053187;28;20203;-78
2020/12/24 09:12:56;;;;;;;0.47;0.30;;;5.20;99.90;;;;;;5054014;28;20204;-78
2020/12/24 09:15:27;;;;;;;0.80;0.40;;;5.20;99.90;;;;;;5053772;28;20226;-78
2020/12/24 09:17:54;;;;;;;1.63;0.90;;;5.30;99.90;;;;;;5054066;28;20234;-78
2020/12/24 09:20:22;;;;;;;1.03;0.87;;;5.40;99.90;;;;;;5053631;28;20627;-78
2020/12/24 09:22:50;;;;;;;2.03;0.77;;;5.40;99.90;;;;;;5053783;28;20231;-78
2020/12/24 09:25:29;;;;;;;1.27;0.90;;;5.40;99.90;;;;;;5053687;28;20204;-78
2020/12/24 09:27:55;;;;;;;1.37;0.77;;;5.50;99.90;;;;;;5053494;28;20667;-78
2020/12/24 09:30:21;;;;;;;2.73;1.00;;;5.50;99.90;;;;;;5053785;28;20215;-78
2020/12/24 09:32:54;;;;;;;1.30;0.87;;;5.50;99.90;;;;;;5053641;28;20258;-78
2020/12/24 09:35:21;;;;;;;1.77;1.03;;;5.50;99.90;;;;;;5053570;28;20791;-77
2020/12/24 09:37:48;;;;;;;2.40;1.10;;;5.50;99.90;;;;;;5053336;28;20215;-78
2020/12/24 09:40:14;;;;;;;1.57;0.90;;;5.50;99.90;;;;;;5053351;28;20210;-78
2020/12/24 09:42:40;;;;;;;3.10;1.37;;;5.40;99.90;;;;;;5053392;28;20245;-78
2020/12/24 09:45:07;;;;;;;1.50;1.10;;;5.50;99.90;;;;;;5053320;28;20207;-78
2020/12/24 09:47:33;;;;;;;1.43;1.17;;;5.50;99.90;;;;;;5053423;28;20197;-78
2020/12/24 09:50:00;;;;;;;1.03;0.80;;;5.60;99.90;;;;;;5053250;28;20209;-78
2020/12/24 09:52:27;;;;;;;0.80;0.63;;;5.60;99.90;;;;;;5053380;28;20210;-77
2020/12/24 09:54:53;;;;;;;1.07;0.67;;;5.50;99.90;;;;;;5053219;28;20226;-78
2020/12/24 09:57:19;;;;;;;2.77;0.70;;;5.50;99.90;;;;;;5054026;28;20254;-78
2020/12/24 09:59:46;;;;;;;1.53;0.70;;;5.40;99.90;;;;;;5053514;28;20229;-78
2020/12/24 10:02:12;;;;;;;0.53;0.50;;;5.50;99.90;;;;;;5053794;28;20569;-78
2020/12/24 10:04:38;;;;;;;1.00;0.90;;;5.50;99.90;;;;;;5052942;28;20593;-77
2020/12/24 10:07:06;;;;;;;1.77;0.80;;;5.50;99.90;;;;;;5053341;28;20201;-78
2020/12/24 10:09:32;;;;;;;2.77;0.77;;;5.50;99.90;;;;;;5053046;28;20201;-78
2020/12/24 10:11:58;;;;;;;1.47;1.00;;;5.60;99.90;;;;;;5053025;28;20224;-77
2020/12/24 10:14:25;;;;;;;1.03;0.80;;;5.60;99.90;;;;;;5052714;28;20227;-78
2020/12/24 10:16:51;;;;;;;1.37;0.87;;;5.60;99.90;;;;;;5052733;28;20250;-78
2020/12/24 10:19:17;;;;;;;1.30;0.90;;;5.60;99.90;;;;;;5052518;28;20215;-78
2020/12/24 10:21:44;;;;;;;1.57;1.23;;;5.70;99.90;;;;;;5052934;28;20297;-79
2020/12/24 10:24:11;;;;;;;1.77;1.00;;;5.70;99.90;;;;;;5052793;28;20209;-78
2020/12/24 10:26:38;;;;;;;1.50;0.90;;;5.60;99.90;;;;;;5052735;28;20342;-78
2020/12/24 10:29:04;;;;;;;1.47;1.03;;;5.60;99.90;;;;;;5052660;28;20197;-78
2020/12/24 10:31:31;;;;;;;1.30;0.97;;;5.60;99.90;;;;;;5052426;28;20197;-78
2020/12/24 10:33:57;;;;;;;2.17;1.00;;;5.60;99.90;;;;;;5052383;28;20297;-78
2020/12/24 10:36:24;;;;;;;3.63;1.50;;;5.80;99.90;;;;;;5052720;28;20620;-78
2020/12/24 10:38:50;;;;;;;2.27;1.40;;;5.80;99.90;;;;;;5052391;28;20197;-78
2020/12/24 10:41:18;;;;;;;1.83;1.57;;;5.80;99.90;;;;;;5052495;28;20227;-78
2020/12/24 10:43:44;;;;;;;3.07;2.03;;;5.80;99.90;;;;;;5052461;28;20198;-78
2020/12/24 10:46:15;;;;;;;3.37;2.30;;;5.90;99.90;;;;;;5052364;28;20198;-77
2020/12/24 10:48:42;;;;;;;2.90;2.23;;;5.90;99.90;;;;;;5052330;28;20263;-77
2020/12/24 10:51:08;;;;;;;2.50;2.00;;;6.00;99.90;;;;;;5052186;28;20646;-78
2020/12/24 10:53:35;;;;;;;3.27;2.27;;;6.10;99.90;;;;;;5051785;28;20209;-78
2020/12/24 10:56:01;;;;;;;4.73;2.10;;;6.20;99.90;;;;;;5052106;28;20230;-78
2020/12/24 10:58:28;;;;;;;2.80;1.97;;;6.20;99.90;;;;;;5052477;28;20209;-78
2020/12/24 11:00:54;;;;;;;2.83;1.80;;;6.20;99.90;;;;;;5052097;28;20207;-77
2020/12/24 11:03:26;;;;;;;3.33;1.60;;;6.20;99.90;;;;;;5052360;28;20207;-77
2020/12/24 11:05:52;;;;;;;5.00;1.60;;;6.10;99.90;;;;;;5052081;28;20655;-77
2020/12/24 11:08:18;;;;;;;4.33;1.60;;;6.00;99.90;;;;;;5052075;28;20567;-77
2020/12/24 11:10:45;;;;;;;3.57;1.40;;;6.20;99.90;;;;;;5052145;28;20358;-77
2020/12/24 11:13:11;;;;;;;6.83;1.70;;;6.20;99.90;;;;;;5052053;28;20284;-77
2020/12/24 11:15:39;;;;;;;2.77;1.77;;;6.20;99.90;;;;;;5051980;28;20586;-78
2020/12/24 11:18:05;;;;;;;6.67;1.67;;;6.20;99.90;;;;;;5052028;28;20232;-78
2020/12/24 11:20:32;;;;;;;4.40;1.73;;;6.20;99.90;;;;;;5052022;28;20201;-78
2020/12/24 11:22:58;;;;;;;2.43;0.87;;;6.10;99.90;;;;;;5052116;28;20200;-77
2020/12/24 11:25:24;;;;;;;3.97;1.27;;;6.20;99.90;;;;;;5052099;28;20287;-77
2020/12/24 11:27:50;;;;;;;4.50;1.50;;;6.20;99.90;;;;;;5052029;28;20570;-77
2020/12/24 11:30:17;;;;;;;3.53;1.20;;;6.20;99.90;;;;;;5051804;28;20196;-77
2020/12/24 11:32:44;;;;;;;4.30;1.13;;;6.30;99.90;;;;;;5052097;28;20201;-77
2020/12/24 11:35:13;;;;;;;4.23;1.17;;;6.40;99.90;;;;;;5051817;28;20229;-77
2020/12/24 11:37:39;;;;;;;3.80;0.83;;;6.30;99.90;;;;;;5051947;28;20295;-77
2020/12/24 11:40:06;;;;;;;4.20;0.80;;;6.30;99.90;;;;;;5051943;28;20197;-78
2020/12/24 11:42:32;;;;;;;2.93;0.80;;;6.40;99.90;;;;;;5051829;28;20537;-78
2020/12/24 11:44:59;;;;;;;3.40;0.60;;;6.30;99.90;;;;;;5051985;28;20586;-77
2020/12/24 11:47:25;;;;;;;4.33;0.70;;;6.30;99.90;;;;;;5051980;28;20208;-77
2020/12/24 11:49:53;;;;;;;3.73;0.50;;;6.40;99.90;;;;;;5051712;28;20639;-77
2020/12/24 11:52:19;;;;;;;3.77;0.60;;;6.40;99.90;;;;;;5051835;28;20292;-77
2020/12/24 11:54:45;;;;;;;6.13;1.33;;;6.30;99.90;;;;;;5051994;28;20221;-77
2020/12/24 11:57:12;;;;;;;2.63;0.80;;;6.50;99.90;;;;;;5051540;28;20232;-77
2020/12/24 11:59:40;;;;;;;2.17;0.90;;;6.60;99.90;;;;;;5051882;28;20201;-78
2020/12/24 12:02:06;;;;;;;5.13;1.23;;;6.70;99.90;;;;;;5051571;28;20201;-77
2020/12/24 12:04:33;;;;;;;2.63;0.90;;;6.80;99.90;;;;;;5052783;28;20192;-78
2020/12/24 12:07:00;;;;;;;3.07;1.00;;;6.90;99.90;;;;;;5055418;28;20273;-77
2020/12/24 12:09:26;;;;;;;2.40;0.97;;;6.90;99.90;;;;;;5055226;28;20224;-78
2020/12/24 12:11:52;;;;;;;2.93;1.10;;;6.90;99.90;;;;;;5055144;28;20297;-78
2020/12/24 12:14:19;;;;;;;3.87;1.07;;;7.10;99.90;;;;;;5055413;28;20297;-78
2020/12/24 12:16:46;;;;;;;7.83;1.20;;;7.00;99.90;;;;;;5055287;28;20538;-78
2020/12/24 12:19:13;;;;;;;3.07;0.60;;;7.30;99.90;;;;;;5054973;28;20214;-78
2020/12/24 12:21:39;;;;;;;2.13;0.83;;;7.20;99.90;;;;;;5054856;28;20563;-77
2020/12/24 12:24:06;;;;;;;2.33;0.93;;;7.30;99.90;;;;;;5054819;28;20194;-78
2020/12/24 12:26:33;;;;;;;4.30;1.00;;;7.20;99.90;;;;;;5054844;28;20237;-78
2020/12/24 12:28:59;;;;;;;3.23;0.87;;;7.20;99.90;;;;;;5055120;28;20198;-78
2020/12/24 12:31:26;;;;;;;3.90;0.80;;;7.40;99.90;;;;;;5054935;28;20229;-78
2020/12/24 12:33:53;;;;;;;5.37;1.00;;;7.50;99.90;;;;;;5055000;28;20197;-78
2020/12/24 12:36:20;;;;;;;3.73;0.80;;;7.60;99.90;;;;;;5054666;28;20259;-78
2020/12/24 12:38:47;;;;;;;7.20;1.10;;;7.50;99.90;;;;;;5054631;28;20201;-78
2020/12/24 12:41:15;;;;;;;6.27;1.30;;;7.40;99.90;;;;;;5054638;28;20288;-78
2020/12/24 12:43:42;;;;;;;1.53;0.90;;;7.50;99.90;;;;;;5054520;28;20561;-78
2020/12/24 12:46:09;;;;;;;4.50;1.13;;;7.60;99.90;;;;;;5054667;28;20288;-77
2020/12/24 12:48:36;;;;;;;2.20;0.50;;;7.40;99.90;;;;;;5054566;28;20213;-78
2020/12/24 12:51:02;;;;;;;3.33;0.90;;;7.30;99.90;;;;;;5054443;28;20194;-78
2020/12/24 12:53:30;;;;;;;3.43;0.60;;;7.30;99.90;;;;;;5054305;28;20212;-78
2020/12/24 12:55:56;;;;;;;2.40;0.70;;;7.40;99.90;;;;;;5054500;28;20662;-77
2020/12/24 12:58:23;;;;;;;2.87;0.73;;;7.50;99.90;;;;;;5054202;28;20292;-78